createdAt,value
2018-05-09T00:00:50.617Z,97162.23
2018-05-09T00:01:56.173Z,97160.50
2018-05-09T00:03:02.363Z,97157.42
2018-05-09T00:04:07.211Z,97158.48
2018-05-09T00:05:12.324Z,97159.58
2018-05-09T00:06:17.449Z,97159.70
2018-05-09T00:07:22.689Z,97155.77
2018-05-09T00:08:29.193Z,97157.30
2018-05-09T00:09:35.082Z,97149.44
2018-05-09T00:10:39.910Z,97151.84
2018-05-09T00:11:46.330Z,97153.91
2018-05-09T00:12:51.416Z,97151.84
2018-05-09T00:13:56.322Z,97150.84
2018-05-09T00:15:02.568Z,97153.30
2018-05-09T00:16:08.033Z,97150.19
2018-05-09T00:17:13.233Z,97154.06
2018-05-09T00:18:18.864Z,97150.91
2018-05-09T00:19:25.133Z,97146.50
2018-05-09T00:20:31.168Z,97153.48
2018-05-09T00:21:36.967Z,97152.31
2018-05-09T00:22:43.437Z,97149.31
2018-05-09T00:23:48.287Z,97147.97
2018-05-09T00:24:53.579Z,97145.38
2018-05-09T00:25:58.741Z,97156.17
2018-05-09T00:27:03.872Z,97152.70
2018-05-09T00:28:09.208Z,97159.78
2018-05-09T00:29:15.430Z,97153.98
2018-05-09T00:30:20.566Z,97151.39
2018-05-09T00:31:26.497Z,97146.30
2018-05-09T00:32:31.388Z,97149.97
2018-05-09T00:33:36.764Z,97149.17
2018-05-09T00:34:42.433Z,97143.09
2018-05-09T00:35:48.008Z,97150.05
2018-05-09T00:36:53.430Z,97141.98
2018-05-09T00:37:58.748Z,97137.30
2018-05-09T00:39:04.736Z,97138.42
2018-05-09T00:40:09.872Z,97140.89
2018-05-09T00:41:14.975Z,97135.56
2018-05-09T00:42:21.516Z,97132.37
2018-05-09T00:43:27.211Z,97134.36
2018-05-09T00:44:33.264Z,97133.09
2018-05-09T00:45:40.141Z,97130.73
2018-05-09T00:46:45.450Z,97123.13
2018-05-09T00:47:50.149Z,97127.90
2018-05-09T00:48:56.009Z,97124.23
2018-05-09T00:50:01.844Z,97125.23
2018-05-09T00:51:06.842Z,97129.23
2018-05-09T00:52:12.560Z,97124.99
2018-05-09T00:53:17.760Z,97118.86
2018-05-09T00:54:27.846Z,97125.12
2018-05-09T00:55:32.403Z,97122.52
2018-05-09T00:56:36.987Z,97118.64
2018-05-09T00:57:42.649Z,97113.52
2018-05-09T00:58:47.271Z,97118.17
2018-05-09T00:59:51.964Z,97119.20
2018-05-09T01:00:57.529Z,97120.05
2018-05-09T01:02:02.571Z,97116.06
2018-05-09T01:03:07.251Z,97121.41
2018-05-09T01:04:12.181Z,97119.06
2018-05-09T01:05:17.220Z,97119.13
2018-05-09T01:06:22.219Z,97122.98
2018-05-09T01:07:28.258Z,97122.32
2018-05-09T01:08:34.193Z,97119.72
2018-05-09T01:09:40.180Z,97123.23
2018-05-09T01:10:45.354Z,97121.13
2018-05-09T01:11:50.208Z,97124.06
2018-05-09T01:12:55.487Z,97128.56
2018-05-09T01:14:01.522Z,97127.77
2018-05-09T01:15:06.764Z,97127.31
2018-05-09T01:16:11.922Z,97129.11
2018-05-09T01:17:17.546Z,97129.06
2018-05-09T01:18:23.353Z,97126.00
2018-05-09T01:19:28.962Z,97126.80
2018-05-09T01:20:35.570Z,97119.29
2018-05-09T01:21:42.207Z,97132.98
2018-05-09T01:22:47.898Z,97131.41
2018-05-09T01:23:52.709Z,97125.91
2018-05-09T01:24:58.459Z,97131.41
2018-05-09T01:26:03.633Z,97126.22
2018-05-09T01:27:09.651Z,97125.27
2018-05-09T01:28:15.688Z,97129.97
2018-05-09T01:29:21.471Z,97128.98
2018-05-09T01:30:26.714Z,97124.89
2018-05-09T01:31:32.021Z,97123.25
2018-05-09T01:32:37.116Z,97126.93
2018-05-09T01:33:43.423Z,97126.64
2018-05-09T01:34:48.635Z,97127.31
2018-05-09T01:35:53.533Z,97126.26
2018-05-09T01:36:58.634Z,97116.23
2018-05-09T01:38:03.827Z,97114.77
2018-05-09T01:39:10.392Z,97114.42
2018-05-09T01:41:39.042Z,97116.28
2018-05-09T01:42:43.525Z,97116.49
2018-05-09T01:43:47.986Z,97113.69
2018-05-09T01:44:52.444Z,97116.55
2018-05-09T01:45:57.517Z,97107.19
2018-05-09T01:47:03.401Z,97107.12
2018-05-09T01:48:08.180Z,97110.30
2018-05-09T01:49:13.257Z,97109.45
2018-05-09T01:50:18.555Z,97108.62
2018-05-09T01:51:23.812Z,97109.42
2018-05-09T01:52:29.557Z,97114.89
2018-05-09T01:53:35.773Z,97117.23
2018-05-09T01:54:40.791Z,97110.08
2018-05-09T01:55:45.818Z,97109.05
2018-05-09T01:56:51.706Z,97118.86
2018-05-09T01:57:56.531Z,97112.02
2018-05-09T01:59:01.101Z,97113.72
2018-05-09T02:00:06.602Z,97110.34
2018-05-09T02:01:12.049Z,97113.76
2018-05-09T02:02:17.350Z,97111.97
2018-05-09T02:03:22.918Z,97121.55
2018-05-09T02:04:27.857Z,97116.30
2018-05-09T02:05:33.223Z,97113.75
2018-05-09T02:06:39.809Z,97115.62
2018-05-09T02:07:44.945Z,97114.98
2018-05-09T02:08:50.198Z,97114.27
2018-05-09T02:09:55.789Z,97112.28
2018-05-09T02:11:00.792Z,97116.85
2018-05-09T02:12:05.931Z,97116.20
2018-05-09T02:13:11.169Z,97115.34
2018-05-09T02:14:15.910Z,97118.70
2018-05-09T02:15:20.532Z,97116.04
2018-05-09T02:16:25.086Z,97116.55
2018-05-09T02:17:29.660Z,97117.36
2018-05-09T02:18:34.207Z,97105.82
2018-05-09T02:19:39.216Z,97110.58
2018-05-09T02:20:43.777Z,97112.41
2018-05-09T02:21:48.942Z,97102.80
2018-05-09T02:22:54.247Z,97108.64
2018-05-09T02:23:59.669Z,97104.62
2018-05-09T02:25:04.793Z,97108.11
2018-05-09T02:26:10.389Z,97110.43
2018-05-09T02:27:15.734Z,97107.52
2018-05-09T02:28:20.805Z,97111.91
2018-05-09T02:29:26.238Z,97111.92
2018-05-09T02:30:32.065Z,97112.55
2018-05-09T02:31:37.904Z,97119.81
2018-05-09T02:32:42.622Z,97115.81
2018-05-09T02:33:48.210Z,97116.70
2018-05-09T02:34:53.252Z,97111.44
2018-05-09T02:35:58.621Z,97108.49
2018-05-09T02:37:04.762Z,97111.75
2018-05-09T02:38:10.162Z,97107.90
2018-05-09T02:39:15.862Z,97109.91
2018-05-09T02:40:21.478Z,97114.23
2018-05-09T02:41:27.235Z,97118.31
2018-05-09T02:42:32.531Z,97115.58
2018-05-09T02:43:37.669Z,97110.65
2018-05-09T02:44:44.312Z,97123.09
2018-05-09T02:45:49.748Z,97115.94
2018-05-09T02:46:54.616Z,97117.17
2018-05-09T02:48:00.477Z,97123.88
2018-05-09T02:49:06.093Z,97123.97
2018-05-09T02:50:11.627Z,97113.61
2018-05-09T02:51:17.615Z,97115.90
2018-05-09T02:52:23.316Z,97123.53
2018-05-09T02:53:29.807Z,97111.83
2018-05-09T02:54:35.453Z,97120.14
2018-05-09T02:55:40.846Z,97119.95
2018-05-09T02:56:45.937Z,97123.40
2018-05-09T02:57:51.212Z,97118.41
2018-05-09T02:58:56.706Z,97118.50
2018-05-09T03:00:02.098Z,97118.27
2018-05-09T03:01:08.085Z,97112.52
2018-05-09T03:02:14.101Z,97114.52
2018-05-09T03:03:19.105Z,97115.48
2018-05-09T03:04:24.975Z,97114.73
2018-05-09T03:05:29.942Z,97116.48
2018-05-09T03:06:34.986Z,97114.44
2018-05-09T03:07:40.171Z,97116.38
2018-05-09T03:08:46.210Z,97120.88
2018-05-09T03:09:51.461Z,97118.53
2018-05-09T03:10:56.705Z,97117.80
2018-05-09T03:12:02.089Z,97122.20
2018-05-09T03:13:07.517Z,97121.53
2018-05-09T03:14:12.566Z,97119.80
2018-05-09T03:15:18.724Z,97124.27
2018-05-09T03:16:23.886Z,97118.20
2018-05-09T03:17:29.374Z,97120.27
2018-05-09T03:18:34.450Z,97125.46
2018-05-09T03:19:39.410Z,97116.91
2018-05-09T03:20:43.934Z,97115.99
2018-05-09T03:21:48.466Z,97117.01
2018-05-09T03:22:52.962Z,97124.58
2018-05-09T03:23:57.844Z,97118.30
2018-05-09T03:25:02.410Z,97118.73
2018-05-09T03:26:06.974Z,97123.16
2018-05-09T03:27:11.534Z,97124.08
2018-05-09T03:28:16.286Z,97127.06
2018-05-09T03:29:20.965Z,97125.11
2018-05-09T03:30:26.117Z,97116.99
2018-05-09T03:31:31.054Z,97123.76
2018-05-09T03:32:36.695Z,97120.66
2018-05-09T03:33:42.218Z,97128.28
2018-05-09T03:34:47.966Z,97124.50
2018-05-09T03:35:53.546Z,97126.62
2018-05-09T03:37:00.015Z,97117.75
2018-05-09T03:38:04.768Z,97124.48
2018-05-09T03:39:09.810Z,97123.74
2018-05-09T03:40:15.079Z,97124.88
2018-05-09T03:41:19.987Z,97129.70
2018-05-09T03:42:26.700Z,97124.80
2018-05-09T03:43:32.528Z,97124.48
2018-05-09T03:44:38.187Z,97130.60
2018-05-09T03:45:43.142Z,97125.73
2018-05-09T03:46:48.194Z,97130.04
2018-05-09T03:47:54.306Z,97131.66
2018-05-09T03:49:00.268Z,97128.45
2018-05-09T03:50:06.115Z,97127.73
2018-05-09T03:51:11.213Z,97131.92
2018-05-09T03:52:16.689Z,97140.13
2018-05-09T03:53:22.527Z,97128.98
2018-05-09T03:54:28.053Z,97137.41
2018-05-09T03:55:33.811Z,97134.27
2018-05-09T03:56:39.570Z,97132.61
2018-05-09T03:57:45.225Z,97127.25
2018-05-09T03:58:50.970Z,97131.20
2018-05-09T03:59:56.025Z,97130.06
2018-05-09T04:01:01.152Z,97134.21
2018-05-09T04:02:09.915Z,97129.10
2018-05-09T04:03:20.415Z,97131.56
2018-05-09T04:04:30.240Z,97131.25
2018-05-09T04:05:40.320Z,97130.36
2018-05-09T04:08:56.604Z,97128.42
2018-05-09T04:10:01.168Z,97127.05
2018-05-09T04:11:05.790Z,97135.53
2018-05-09T04:12:10.376Z,97126.45
2018-05-09T04:13:15.016Z,97125.50
2018-05-09T04:14:20.596Z,97124.86
2018-05-09T04:15:26.596Z,97127.22
2018-05-09T04:16:31.329Z,97124.27
2018-05-09T04:17:36.437Z,97122.66
2018-05-09T04:18:41.888Z,97128.77
2018-05-09T04:19:47.029Z,97129.20
2018-05-09T04:20:52.814Z,97126.41
2018-05-09T04:21:58.110Z,97129.45
2018-05-09T04:23:03.979Z,97129.13
2018-05-09T04:24:09.036Z,97127.45
2018-05-09T04:25:14.134Z,97129.12
2018-05-09T04:26:19.536Z,97134.80
2018-05-09T04:27:24.519Z,97135.05
2018-05-09T04:28:30.934Z,97131.07
2018-05-09T04:29:37.192Z,97130.86
2018-05-09T04:30:42.371Z,97127.59
2018-05-09T04:31:47.361Z,97126.08
2018-05-09T04:32:53.498Z,97130.63
2018-05-09T04:33:59.590Z,97129.18
2018-05-09T04:35:04.953Z,97123.80
2018-05-09T04:36:10.497Z,97131.38
2018-05-09T04:37:15.538Z,97130.67
2018-05-09T04:38:21.074Z,97123.31
2018-05-09T04:39:27.100Z,97127.78
2018-05-09T04:40:33.029Z,97128.17
2018-05-09T04:41:38.780Z,97122.95
2018-05-09T04:42:43.762Z,97127.45
2018-05-09T04:43:49.076Z,97128.16
2018-05-09T04:44:54.232Z,97130.16
2018-05-09T04:46:00.594Z,97137.36
2018-05-09T04:47:08.744Z,97133.16
2018-05-09T04:48:13.600Z,97138.95
2018-05-09T04:49:18.374Z,97138.89
2018-05-09T04:50:23.915Z,97140.20
2018-05-09T04:51:29.100Z,97133.44
2018-05-09T04:52:34.245Z,97137.09
2018-05-09T04:53:39.207Z,97130.16
2018-05-09T04:54:44.441Z,97139.02
2018-05-09T04:55:51.450Z,97138.95
2018-05-09T04:56:57.052Z,97137.81
2018-05-09T04:58:02.121Z,97143.84
2018-05-09T04:59:07.239Z,97135.78
2018-05-09T05:00:12.885Z,97142.42
2018-05-09T05:01:17.817Z,97143.25
2018-05-09T05:02:22.453Z,97140.55
2018-05-09T05:03:27.031Z,97140.52
2018-05-09T05:04:31.632Z,97142.00
2018-05-09T05:05:36.189Z,97142.42
2018-05-09T05:06:41.145Z,97143.22
2018-05-09T05:07:45.690Z,97144.08
2018-05-09T05:08:50.227Z,97145.25
2018-05-09T05:09:55.173Z,97145.48
2018-05-09T05:11:00.011Z,97148.13
2018-05-09T05:12:05.003Z,97148.93
2018-05-09T05:13:11.921Z,97143.45
2018-05-09T05:14:17.408Z,97144.09
2018-05-09T05:15:22.287Z,97146.32
2018-05-09T05:16:27.821Z,97148.84
2018-05-09T05:17:32.759Z,97150.09
2018-05-09T05:18:38.321Z,97146.30
2018-05-09T05:19:44.152Z,97142.92
2018-05-09T05:20:49.359Z,97143.05
2018-05-09T05:21:54.232Z,97147.67
2018-05-09T05:23:00.714Z,97144.69
2018-05-09T05:24:06.502Z,97141.88
2018-05-09T05:25:12.052Z,97138.61
2018-05-09T05:26:17.623Z,97136.04
2018-05-09T05:27:22.694Z,97139.61
2018-05-09T05:28:28.561Z,97141.56
2018-05-09T05:29:33.635Z,97139.75
2018-05-09T05:30:39.013Z,97145.75
2018-05-09T05:31:45.026Z,97142.03
2018-05-09T05:32:50.639Z,97138.29
2018-05-09T05:33:56.180Z,97142.95
2018-05-09T05:35:02.424Z,97143.36
2018-05-09T05:36:08.483Z,97141.47
2018-05-09T05:37:13.619Z,97146.46
2018-05-09T05:38:19.636Z,97145.28
2018-05-09T05:39:24.652Z,97150.15
2018-05-09T05:40:29.588Z,97142.35
2018-05-09T05:41:35.218Z,97143.96
2018-05-09T05:42:40.243Z,97147.55
2018-05-09T05:43:47.840Z,97143.59
2018-05-09T05:44:53.740Z,97147.97
2018-05-09T05:45:58.262Z,97146.19
2018-05-09T05:47:02.809Z,97144.48
2018-05-09T05:48:07.424Z,97146.48
2018-05-09T05:49:12.147Z,97143.11
2018-05-09T05:50:16.761Z,97140.97
2018-05-09T05:51:22.284Z,97142.86
2018-05-09T05:52:26.860Z,97145.25
2018-05-09T05:53:31.659Z,97144.05
2018-05-09T05:54:37.043Z,97140.83
2018-05-09T05:55:43.070Z,97146.98
2018-05-09T05:56:48.363Z,97152.56
2018-05-09T05:57:54.250Z,97151.45
2018-05-09T05:59:02.047Z,97149.83
2018-05-09T06:00:07.055Z,97152.92
2018-05-09T06:01:12.039Z,97152.66
2018-05-09T06:02:17.450Z,97160.36
2018-05-09T06:03:22.329Z,97154.75
2018-05-09T06:04:27.685Z,97154.03
2018-05-09T06:05:33.223Z,97153.97
2018-05-09T06:06:38.059Z,97154.23
2018-05-09T06:07:43.086Z,97161.78
2018-05-09T06:08:48.494Z,97160.63
2018-05-09T06:09:56.261Z,97157.63
2018-05-09T06:11:01.248Z,97159.81
2018-05-09T06:12:06.095Z,97156.89
2018-05-09T06:13:10.702Z,97155.72
2018-05-09T06:14:16.769Z,97160.14
2018-05-09T06:15:21.434Z,97159.41
2018-05-09T06:16:26.117Z,97159.67
2018-05-09T06:17:31.203Z,97155.25
2018-05-09T06:18:35.779Z,97157.73
2018-05-09T06:19:40.400Z,97162.72
2018-05-09T06:20:44.962Z,97157.70
2018-05-09T06:21:49.472Z,97158.68
2018-05-09T06:22:55.946Z,97154.80
2018-05-09T06:24:01.012Z,97156.08
2018-05-09T06:25:05.532Z,97153.79
2018-05-09T06:26:11.006Z,97160.53
2018-05-09T06:27:15.851Z,97154.12
2018-05-09T06:28:20.722Z,97150.85
2018-05-09T06:29:26.632Z,97153.38
2018-05-09T06:30:32.631Z,97156.77
2018-05-09T06:31:37.711Z,97156.77
2018-05-09T06:32:42.661Z,97161.00
2018-05-09T06:33:49.057Z,97163.33
2018-05-09T06:34:53.947Z,97163.67
2018-05-09T06:35:59.981Z,97161.61
2018-05-09T06:37:05.939Z,97159.41
2018-05-09T06:38:11.686Z,97168.69
2018-05-09T06:39:17.271Z,97161.97
2018-05-09T06:40:22.575Z,97164.19
2018-05-09T06:41:28.803Z,97160.59
2018-05-09T06:42:33.742Z,97165.06
2018-05-09T06:43:39.726Z,97161.41
2018-05-09T06:44:44.969Z,97161.16
2018-05-09T06:45:50.542Z,97161.83
2018-05-09T06:46:55.558Z,97161.80
2018-05-09T06:48:00.605Z,97159.59
2018-05-09T06:49:05.731Z,97160.95
2018-05-09T06:50:11.429Z,97159.38
2018-05-09T06:51:17.509Z,97156.70
2018-05-09T06:52:24.069Z,97150.45
2018-05-09T06:53:29.210Z,97159.31
2018-05-09T06:54:34.428Z,97160.29
2018-05-09T06:55:39.785Z,97160.77
2018-05-09T06:56:45.314Z,97162.27
2018-05-09T06:57:50.281Z,97162.29
2018-05-09T06:58:55.521Z,97158.45
2018-05-09T07:00:00.996Z,97165.15
2018-05-09T07:01:05.970Z,97162.19
2018-05-09T07:02:11.648Z,97166.27
2018-05-09T07:03:17.066Z,97167.06
2018-05-09T07:04:23.101Z,97171.94
2018-05-09T07:05:28.738Z,97171.82
2018-05-09T07:06:35.194Z,97174.94
2018-05-09T07:07:40.717Z,97175.60
2018-05-09T07:08:46.451Z,97176.72
2018-05-09T07:09:52.246Z,97177.19
2018-05-09T07:10:58.282Z,97177.05
2018-05-09T07:12:03.222Z,97178.38
2018-05-09T07:13:08.149Z,97177.44
2018-05-09T07:14:14.313Z,97176.61
2018-05-09T07:15:20.737Z,97179.52
2018-05-09T07:16:25.817Z,97176.26
2018-05-09T07:17:30.928Z,97178.79
2018-05-09T07:18:36.597Z,97177.75
2018-05-09T07:19:42.018Z,97178.97
2018-05-09T07:20:47.332Z,97179.04
2018-05-09T07:23:13.698Z,97183.63
2018-05-09T07:24:18.261Z,97178.97
2018-05-09T07:25:22.820Z,97178.44
2018-05-09T07:26:27.433Z,97182.72
2018-05-09T07:27:32.864Z,97179.06
2018-05-09T07:28:37.775Z,97180.26
2018-05-09T07:29:42.595Z,97184.25
2018-05-09T07:30:47.911Z,97181.55
2018-05-09T07:31:53.729Z,97180.75
2018-05-09T07:32:59.413Z,97184.33
2018-05-09T07:34:04.578Z,97180.44
2018-05-09T07:35:10.508Z,97182.73
2018-05-09T07:36:15.920Z,97184.45
2018-05-09T07:37:21.733Z,97187.90
2018-05-09T07:38:27.772Z,97186.70
2018-05-09T07:39:33.682Z,97195.45
2018-05-09T07:40:39.300Z,97185.52
2018-05-09T07:41:44.134Z,97199.38
2018-05-09T07:42:50.025Z,97192.49
2018-05-09T07:43:55.297Z,97184.42
2018-05-09T07:45:00.675Z,97187.08
2018-05-09T07:46:06.629Z,97184.72
2018-05-09T07:47:11.316Z,97179.98
2018-05-09T07:48:16.126Z,97183.48
2018-05-09T07:49:21.487Z,97181.59
2018-05-09T07:50:26.874Z,97181.05
2018-05-09T07:51:32.161Z,97177.44
2018-05-09T07:52:38.171Z,97184.82
2018-05-09T07:53:43.383Z,97183.89
2018-05-09T07:54:49.529Z,97184.31
2018-05-09T07:55:55.921Z,97180.44
2018-05-09T07:57:01.095Z,97175.95
2018-05-09T07:58:08.611Z,97177.08
2018-05-09T07:59:14.333Z,97181.01
2018-05-09T08:00:19.193Z,97179.40
2018-05-09T08:01:24.581Z,97178.79
2018-05-09T08:02:29.778Z,97180.77
2018-05-09T08:03:35.663Z,97175.53
2018-05-09T08:04:40.840Z,97176.44
2018-05-09T08:05:46.418Z,97166.09
2018-05-09T08:06:51.845Z,97166.48
2018-05-09T08:07:58.432Z,97171.98
2018-05-09T08:09:03.664Z,97172.20
2018-05-09T08:10:08.328Z,97166.97
2018-05-09T08:11:14.161Z,97155.72
2018-05-09T08:12:20.685Z,97165.05
2018-05-09T08:13:25.541Z,97161.36
2018-05-09T08:14:30.816Z,97155.65
2018-05-09T08:15:36.549Z,97158.37
2018-05-09T08:16:43.445Z,97153.42
2018-05-09T08:17:48.614Z,97154.09
2018-05-09T08:18:54.301Z,97159.38
2018-05-09T08:19:58.989Z,97151.62
2018-05-09T08:21:04.032Z,97158.06
2018-05-09T08:22:09.301Z,97157.87
2018-05-09T08:23:14.268Z,97153.19
2018-05-09T08:24:20.198Z,97156.33
2018-05-09T08:25:26.102Z,97158.02
2018-05-09T08:26:32.064Z,97149.06
2018-05-09T08:27:37.809Z,97155.23
2018-05-09T08:28:44.593Z,97159.09
2018-05-09T08:29:49.944Z,97156.33
2018-05-09T08:30:54.697Z,97160.93
2018-05-09T08:32:00.274Z,97156.73
2018-05-09T08:33:05.073Z,97157.02
2018-05-09T08:34:10.021Z,97156.62
2018-05-09T08:35:15.253Z,97156.93
2018-05-09T08:36:20.739Z,97147.47
2018-05-09T08:37:25.981Z,97151.21
2018-05-09T08:38:32.575Z,97151.61
2018-05-09T08:39:37.881Z,97148.64
2018-05-09T08:40:43.002Z,97149.61
2018-05-09T08:41:49.428Z,97153.95
2018-05-09T08:42:54.576Z,97152.27
2018-05-09T08:44:02.789Z,97146.19
2018-05-09T08:45:08.183Z,97149.59
2018-05-09T08:46:12.852Z,97157.77
2018-05-09T08:47:17.678Z,97157.45
2018-05-09T08:48:23.315Z,97154.72
2018-05-09T08:49:28.313Z,97154.52
2018-05-09T08:50:35.032Z,97150.70
2018-05-09T08:51:40.337Z,97150.84
2018-05-09T08:52:44.926Z,97156.35
2018-05-09T08:53:50.309Z,97153.68
2018-05-09T08:54:55.851Z,97150.86
2018-05-09T08:56:00.632Z,97146.00
2018-05-09T08:57:06.409Z,97144.06
2018-05-09T08:58:12.126Z,97143.52
2018-05-09T08:59:17.211Z,97140.72
2018-05-09T09:00:22.172Z,97134.38
2018-05-09T09:01:28.123Z,97139.74
2018-05-09T09:02:33.515Z,97137.55
2018-05-09T09:03:40.216Z,97133.26
2018-05-09T09:04:45.179Z,97138.95
2018-05-09T09:05:49.899Z,97135.53
2018-05-09T09:06:55.138Z,97132.69
2018-05-09T09:08:00.281Z,97135.73
2018-05-09T09:09:05.879Z,97134.89
2018-05-09T09:10:12.695Z,97136.17
2018-05-09T09:11:18.766Z,97133.08
2018-05-09T09:12:24.612Z,97130.88
2018-05-09T09:13:29.778Z,97127.87
2018-05-09T09:14:34.903Z,97138.69
2018-05-09T09:15:40.326Z,97127.89
2018-05-09T09:16:46.356Z,97135.25
2018-05-09T09:17:52.137Z,97129.63
2018-05-09T09:18:56.866Z,97127.80
2018-05-09T09:20:01.534Z,97130.05
2018-05-09T09:21:06.112Z,97133.55
2018-05-09T09:22:10.718Z,97128.41
2018-05-09T09:23:16.212Z,97126.93
2018-05-09T09:24:20.845Z,97126.22
2018-05-09T09:25:25.509Z,97126.34
2018-05-09T09:26:30.322Z,97128.17
2018-05-09T09:27:35.602Z,97128.37
2018-05-09T09:28:41.300Z,97122.02
2018-05-09T09:29:48.041Z,97128.23
2018-05-09T09:30:53.246Z,97124.78
2018-05-09T09:31:58.272Z,97120.82
2018-05-09T09:33:04.029Z,97120.61
2018-05-09T09:34:09.139Z,97115.45
2018-05-09T09:35:14.604Z,97113.67
2018-05-09T09:36:20.590Z,97118.92
2018-05-09T09:37:26.381Z,97113.47
2018-05-09T09:38:31.330Z,97115.20
2018-05-09T09:39:37.451Z,97112.50
2018-05-09T09:40:42.718Z,97110.71
2018-05-09T09:41:48.321Z,97115.96
2018-05-09T09:42:54.129Z,97114.00
2018-05-09T09:44:00.117Z,97112.49
2018-05-09T09:45:07.843Z,97107.60
2018-05-09T09:46:13.522Z,97106.16
2018-05-09T09:47:18.394Z,97105.02
2018-05-09T09:48:23.702Z,97108.95
2018-05-09T09:49:28.756Z,97100.13
2018-05-09T09:50:33.730Z,97100.92
2018-05-09T09:51:39.297Z,97104.50
2018-05-09T09:52:44.553Z,97098.45
2018-05-09T09:53:49.624Z,97104.67
2018-05-09T09:54:54.877Z,97101.39
2018-05-09T09:56:01.304Z,97100.08
2018-05-09T09:57:07.162Z,97094.42
2018-05-09T09:58:15.629Z,97096.45
2018-05-09T09:59:20.324Z,97100.02
2018-05-09T10:00:25.959Z,97098.42
2018-05-09T10:01:32.062Z,97091.91
2018-05-09T10:02:42.039Z,97098.42
2018-05-09T10:03:47.645Z,97094.58
2018-05-09T10:04:52.298Z,97097.53
2018-05-09T10:05:57.429Z,97094.83
2018-05-09T10:07:02.183Z,97093.88
2018-05-09T10:08:06.830Z,97094.48
2018-05-09T10:09:13.062Z,97091.61
2018-05-09T10:10:18.453Z,97094.84
2018-05-09T10:11:23.105Z,97093.36
2018-05-09T10:12:29.067Z,97088.50
2018-05-09T10:13:33.926Z,97092.22
2018-05-09T10:14:38.839Z,97090.30
2018-05-09T10:15:45.413Z,97089.55
2018-05-09T10:16:51.617Z,97087.16
2018-05-09T10:17:56.653Z,97082.39
2018-05-09T10:19:01.610Z,97082.34
2018-05-09T10:20:06.507Z,97080.30
2018-05-09T10:21:11.762Z,97083.45
2018-05-09T10:22:17.332Z,97083.65
2018-05-09T10:23:22.765Z,97085.77
2018-05-09T10:24:29.782Z,97078.45
2018-05-09T10:25:35.880Z,97075.86
2018-05-09T10:26:42.147Z,97075.10
2018-05-09T10:27:47.161Z,97076.36
2018-05-09T10:28:52.390Z,97075.63
2018-05-09T10:29:58.504Z,97072.98
2018-05-09T10:31:03.738Z,97071.61
2018-05-09T10:32:08.733Z,97073.42
2018-05-09T10:33:14.882Z,97071.72
2018-05-09T10:34:20.667Z,97075.44
2018-05-09T10:35:26.281Z,97073.77
2018-05-09T10:36:31.330Z,97069.91
2018-05-09T10:37:36.267Z,97066.90
2018-05-09T10:38:43.121Z,97065.38
2018-05-09T10:39:53.106Z,97065.28
2018-05-09T10:40:57.778Z,97069.08
2018-05-09T10:42:02.411Z,97060.50
2018-05-09T10:43:07.178Z,97063.34
2018-05-09T10:44:12.625Z,97055.11
2018-05-09T10:45:18.520Z,97062.39
2018-05-09T10:46:23.634Z,97060.92
2018-05-09T10:47:28.887Z,97052.81
2018-05-09T10:48:33.663Z,97055.95
2018-05-09T10:49:38.823Z,97059.42
2018-05-09T10:50:44.907Z,97050.89
2018-05-09T10:51:50.816Z,97053.19
2018-05-09T10:52:56.008Z,97051.59
2018-05-09T10:54:00.974Z,97057.75
2018-05-09T10:55:06.129Z,97053.12
2018-05-09T10:56:11.057Z,97047.58
2018-05-09T10:57:17.199Z,97047.44
2018-05-09T10:58:23.275Z,97040.05
2018-05-09T10:59:28.764Z,97040.84
2018-05-09T11:00:34.062Z,97041.88
2018-05-09T11:01:39.520Z,97047.64
2018-05-09T11:02:45.424Z,97044.03
2018-05-09T11:03:51.455Z,97043.00
2018-05-09T11:04:58.804Z,97039.09
2018-05-09T11:06:04.414Z,97044.38
2018-05-09T11:07:09.224Z,97041.45
2018-05-09T11:08:14.469Z,97044.92
2018-05-09T11:09:19.281Z,97050.96
2018-05-09T11:10:26.854Z,97046.63
2018-05-09T11:11:31.838Z,97042.37
2018-05-09T11:12:36.756Z,97042.09
2018-05-09T11:13:43.605Z,97043.13
2018-05-09T11:14:48.482Z,97042.53
2018-05-09T11:15:53.552Z,97040.45
2018-05-09T11:16:59.408Z,97039.05
2018-05-09T11:18:04.312Z,97043.92
2018-05-09T11:19:09.707Z,97039.03
2018-05-09T11:20:15.577Z,97038.85
2018-05-09T11:21:20.572Z,97030.03
2018-05-09T11:22:26.044Z,97038.20
2018-05-09T11:23:32.022Z,97036.97
2018-05-09T11:24:37.319Z,97037.70
2018-05-09T11:25:43.662Z,97036.83
2018-05-09T11:26:48.803Z,97044.27
2018-05-09T11:27:54.317Z,97043.22
2018-05-09T11:29:00.428Z,97039.67
2018-05-09T11:30:05.910Z,97041.83
2018-05-09T11:31:11.497Z,97043.72
2018-05-09T11:32:16.632Z,97045.44
2018-05-09T11:33:23.452Z,97047.44
2018-05-09T11:34:30.003Z,97046.77
2018-05-09T11:35:35.472Z,97041.33
2018-05-09T11:36:40.401Z,97039.66
2018-05-09T11:37:46.472Z,97044.30
2018-05-09T11:38:52.774Z,97037.77
2018-05-09T11:39:58.628Z,97034.57
2018-05-09T11:41:04.785Z,97035.56
2018-05-09T11:42:10.401Z,97033.58
2018-05-09T11:43:15.158Z,97039.64
2018-05-09T11:44:20.378Z,97034.47
2018-05-09T11:45:25.526Z,97032.89
2018-05-09T11:46:32.173Z,97033.16
2018-05-09T11:47:37.173Z,97038.03
2018-05-09T11:48:42.888Z,97036.05
2018-05-09T11:49:47.745Z,97034.87
2018-05-09T11:50:52.684Z,97034.27
2018-05-09T11:51:58.420Z,97036.55
2018-05-09T11:53:04.341Z,97029.13
2018-05-09T11:54:10.783Z,97029.43
2018-05-09T11:55:16.150Z,97030.42
2018-05-09T11:56:21.160Z,97030.44
2018-05-09T11:57:26.164Z,97031.03
2018-05-09T11:58:32.108Z,97026.88
2018-05-09T11:59:37.125Z,97030.83
2018-05-09T12:00:45.105Z,97031.34
2018-05-09T12:01:50.426Z,97027.52
2018-05-09T12:02:56.058Z,97018.84
2018-05-09T12:04:00.770Z,97023.36
2018-05-09T12:05:05.758Z,97033.60
2018-05-09T12:06:10.913Z,97029.34
2018-05-09T12:07:17.568Z,97029.55
2018-05-09T12:08:22.246Z,97032.45
2018-05-09T12:09:27.260Z,97027.84
2018-05-09T12:10:33.846Z,97028.72
2018-05-09T12:11:39.297Z,97022.57
2018-05-09T12:12:44.795Z,97031.22
2018-05-09T12:13:51.232Z,97026.63
2018-05-09T12:14:56.113Z,97027.13
2018-05-09T12:16:03.131Z,97020.33
2018-05-09T12:17:09.294Z,97020.02
2018-05-09T12:18:13.958Z,97029.11
2018-05-09T12:19:19.970Z,97031.28
2018-05-09T12:20:25.809Z,97029.80
2018-05-09T12:21:31.869Z,97023.20
2018-05-09T12:22:38.406Z,97020.84
2018-05-09T12:23:43.838Z,97024.55
2018-05-09T12:24:50.695Z,97026.04
2018-05-09T12:25:56.632Z,97035.71
2018-05-09T12:27:01.698Z,97031.37
2018-05-09T12:28:07.285Z,97021.60
2018-05-09T12:29:12.368Z,97026.85
2018-05-09T12:30:18.353Z,97022.71
2018-05-09T12:31:24.010Z,97021.22
2018-05-09T12:32:29.141Z,97021.20
2018-05-09T12:33:36.859Z,97025.33
2018-05-09T12:34:41.688Z,97026.55
2018-05-09T12:35:46.585Z,97019.53
2018-05-09T12:36:51.652Z,97017.70
2018-05-09T12:37:58.307Z,97017.06
2018-05-09T12:39:03.386Z,97019.42
2018-05-09T12:40:09.757Z,97014.28
2018-05-09T12:41:15.217Z,97022.16
2018-05-09T12:42:20.940Z,97014.09
2018-05-09T12:43:26.239Z,97013.55
2018-05-09T12:44:31.833Z,97011.03
2018-05-09T12:45:38.392Z,97012.09
2018-05-09T12:46:43.339Z,97008.77
2018-05-09T12:47:48.212Z,97008.06
2018-05-09T12:48:53.440Z,97005.55
2018-05-09T12:49:59.864Z,97008.58
2018-05-09T12:51:04.932Z,97007.55
2018-05-09T12:52:11.128Z,96998.66
2018-05-09T12:53:16.351Z,97002.92
2018-05-09T12:54:22.366Z,96996.69